sensor_id;sensor_type;location;lat;lon;timestamp;pressure;altitude;pressure_sealevel;temperature;humidity
63347;BME280;49472;49.880;8.650;2023-05-03T00:01:46;-6937.59;;;-142.94;nan
63347;BME280;49472;49.880;8.650;2023-05-03T00:04:11;-7426.38;;;-142.94;nan
63347;BME280;49472;49.880;8.650;2023-05-03T00:06:42;-6693.19;;;-142.94;nan
63347;BME280;49472;49.880;8.650;2023-05-03T00:09:07;-7182.00;;;-142.94;nan
63347;BME280;49472;49.880;8.650;2023-05-03T00:11:34;-6204.28;;;-142.94;nan
63347;BME280;49472;49.880;8.650;2023-05-03T00:14:00;-5226.31;;;-142.94;nan
63347;BME280;49472;49.880;8.650;2023-05-03T00:16:25;-5715.34;;;-142.94;nan
63347;BME280;49472;49.880;8.650;2023-05-03T00:18:50;-7182.00;;;-142.94;nan
63347;BME280;49472;49.880;8.650;2023-05-03T00:21:16;-5959.81;;;-142.94;nan
63347;BME280;49472;49.880;8.650;2023-05-03T00:23:41;-6937.59;;;-142.94;nan
63347;BME280;49472;49.880;8.650;2023-05-03T00:26:06;-7182.00;;;-142.94;nan
63347;BME280;49472;49.880;8.650;2023-05-03T00:28:31;-6937.59;;;-142.94;nan
63347;BME280;49472;49.880;8.650;2023-05-03T00:31:05;-8892.28;;;-142.94;nan
63347;BME280;49472;49.880;8.650;2023-05-03T00:33:31;-6204.28;;;-142.94;nan
63347;BME280;49472;49.880;8.650;2023-05-03T00:35:56;-5959.81;;;-142.94;nan
63347;BME280;49472;49.880;8.650;2023-05-03T00:38:21;-7670.75;;;-142.94;nan
63347;BME280;49472;49.880;8.650;2023-05-03T00:40:53;-6448.75;;;-142.94;nan
63347;BME280;49472;49.880;8.650;2023-05-03T00:43:18;-7426.38;;;-142.94;nan
63347;BME280;49472;49.880;8.650;2023-05-03T00:45:43;-7182.00;;;-142.94;nan
63347;BME280;49472;49.880;8.650;2023-05-03T00:48:11;-7182.00;;;-142.94;nan
63347;BME280;49472;49.880;8.650;2023-05-03T00:50:37;-6693.19;;;-142.94;nan
63347;BME280;49472;49.880;8.650;2023-05-03T00:53:03;-7670.75;;;-142.94;nan
63347;BME280;49472;49.880;8.650;2023-05-03T00:55:28;-6693.19;;;-142.94;nan
63347;BME280;49472;49.880;8.650;2023-05-03T00:57:56;-5959.81;;;-142.94;nan
63347;BME280;49472;49.880;8.650;2023-05-03T01:00:22;-4981.75;;;-142.94;nan
63347;BME280;49472;49.880;8.650;2023-05-03T01:02:48;-4981.75;;;-142.94;nan
63347;BME280;49472;49.880;8.650;2023-05-03T01:05:14;-5959.81;;;-142.94;nan
63347;BME280;49472;49.880;8.650;2023-05-03T01:07:50;-8403.72;;;-142.94;nan
63347;BME280;49472;49.880;8.650;2023-05-03T01:13:12;-7182.00;;;-142.94;nan
63347;BME280;49472;49.880;8.650;2023-05-03T01:18:29;-7915.09;;;-142.94;nan
63347;BME280;49472;49.880;8.650;2023-05-03T01:20:58;-7182.00;;;-142.94;nan
63347;BME280;49472;49.880;8.650;2023-05-03T01:23:27;-5959.81;;;-142.94;nan
63347;BME280;49472;49.880;8.650;2023-05-03T01:25:54;-6937.59;;;-142.94;nan
63347;BME280;49472;49.880;8.650;2023-05-03T01:28:20;-7182.00;;;-142.94;nan
63347;BME280;49472;49.880;8.650;2023-05-03T01:30:46;-6693.19;;;-142.94;nan
63347;BME280;49472;49.880;8.650;2023-05-03T01:33:28;-5715.34;;;-142.94;nan
63347;BME280;49472;49.880;8.650;2023-05-03T01:36:10;-6693.19;;;-142.94;nan
63347;BME280;49472;49.880;8.650;2023-05-03T01:38:37;-8648.00;;;-142.94;nan
63347;BME280;49472;49.880;8.650;2023-05-03T01:41:05;-7182.00;;;-142.94;nan
63347;BME280;49472;49.880;8.650;2023-05-03T01:43:33;-6448.75;;;-142.94;nan
63347;BME280;49472;49.880;8.650;2023-05-03T01:46:00;-5959.81;;;-142.94;nan
63347;BME280;49472;49.880;8.650;2023-05-03T01:48:25;-7182.00;;;-142.94;nan
63347;BME280;49472;49.880;8.650;2023-05-03T01:50:51;-7426.38;;;-142.94;nan
63347;BME280;49472;49.880;8.650;2023-05-03T01:53:16;-7182.00;;;-142.94;nan
63347;BME280;49472;49.880;8.650;2023-05-03T01:55:41;-6204.28;;;-142.94;nan
63347;BME280;49472;49.880;8.650;2023-05-03T01:58:07;-5715.34;;;-142.94;nan
63347;BME280;49472;49.880;8.650;2023-05-03T02:00:32;-7426.38;;;-142.94;nan
63347;BME280;49472;49.880;8.650;2023-05-03T02:02:57;-5959.81;;;-142.94;nan
63347;BME280;49472;49.880;8.650;2023-05-03T02:05:23;-9136.53;;;-142.94;nan
63347;BME280;49472;49.880;8.650;2023-05-03T02:07:48;-10357.50;;;-142.94;nan
63347;BME280;49472;49.880;8.650;2023-05-03T02:10:13;-8648.00;;;-142.94;nan
63347;BME280;49472;49.880;8.650;2023-05-03T02:12:42;-6693.19;;;-142.94;nan
63347;BME280;49472;49.880;8.650;2023-05-03T02:15:08;-8159.41;;;-142.94;nan
63347;BME280;49472;49.880;8.650;2023-05-03T02:17:34;-9136.53;;;-142.94;nan
63347;BME280;49472;49.880;8.650;2023-05-03T02:19:59;-8159.41;;;-142.94;nan
63347;BME280;49472;49.880;8.650;2023-05-03T02:22:25;-6448.75;;;-142.94;nan
63347;BME280;49472;49.880;8.650;2023-05-03T02:24:50;-6693.19;;;-142.94;nan
63347;BME280;49472;49.880;8.650;2023-05-03T02:27:16;-6693.19;;;-142.94;nan
63347;BME280;49472;49.880;8.650;2023-05-03T02:29:41;-7182.00;;;-142.94;nan
63347;BME280;49472;49.880;8.650;2023-05-03T02:32:06;-7670.75;;;-142.94;nan
63347;BME280;49472;49.880;8.650;2023-05-03T02:34:32;-8892.28;;;-142.94;nan
63347;BME280;49472;49.880;8.650;2023-05-03T02:36:57;-8892.28;;;-142.94;nan
63347;BME280;49472;49.880;8.650;2023-05-03T02:39:23;-8403.72;;;-142.94;nan
63347;BME280;49472;49.880;8.650;2023-05-03T02:41:48;-8648.00;;;-142.94;nan
63347;BME280;49472;49.880;8.650;2023-05-03T02:44:13;-8648.00;;;-142.94;nan
63347;BME280;49472;49.880;8.650;2023-05-03T02:46:38;-10357.50;;;-142.94;nan
63347;BME280;49472;49.880;8.650;2023-05-03T02:49:06;-9380.75;;;-142.94;nan
63347;BME280;49472;49.880;8.650;2023-05-03T02:51:31;-10845.78;;;-142.94;nan
63347;BME280;49472;49.880;8.650;2023-05-03T02:53:57;-11822.09;;;-142.94;nan
63347;BME280;49472;49.880;8.650;2023-05-03T02:56:22;-11822.09;;;-142.94;nan
63347;BME280;49472;49.880;8.650;2023-05-03T02:58:50;-12066.13;;;-142.94;nan
63347;BME280;49472;49.880;8.650;2023-05-03T03:01:16;-11089.88;;;-142.94;nan
63347;BME280;49472;49.880;8.650;2023-05-03T03:03:41;-10601.66;;;-142.94;nan
63347;BME280;49472;49.880;8.650;2023-05-03T03:06:06;-11089.88;;;-142.94;nan
63347;BME280;49472;49.880;8.650;2023-05-03T03:08:32;-11822.09;;;-142.94;nan
63347;BME280;49472;49.880;8.650;2023-05-03T03:10:57;-12798.13;;;-142.94;nan
63347;BME280;49472;49.880;8.650;2023-05-03T03:13:22;-12310.13;;;-142.94;nan
63347;BME280;49472;49.880;8.650;2023-05-03T03:15:48;-9869.19;;;-142.94;nan
63347;BME280;49472;49.880;8.650;2023-05-03T03:18:13;-12066.13;;;-142.94;nan
63347;BME280;49472;49.880;8.650;2023-05-03T03:20:38;-11578.03;;;-142.94;nan
63347;BME280;49472;49.880;8.650;2023-05-03T03:23:04;-9869.19;;;-142.94;nan
63347;BME280;49472;49.880;8.650;2023-05-03T03:25:29;-8892.28;;;-142.94;nan
63347;BME280;49472;49.880;8.650;2023-05-03T03:27:54;-9136.53;;;-142.94;nan
63347;BME280;49472;49.880;8.650;2023-05-03T03:30:19;-8159.41;;;-142.94;nan
63347;BME280;49472;49.880;8.650;2023-05-03T03:32:45;-9136.53;;;-142.94;nan
63347;BME280;49472;49.880;8.650;2023-05-03T03:35:10;-8403.72;;;-142.94;nan
63347;BME280;49472;49.880;8.650;2023-05-03T03:37:37;-9380.75;;;-142.94;nan
63347;BME280;49472;49.880;8.650;2023-05-03T03:40:03;-8403.72;;;-142.94;nan
63347;BME280;49472;49.880;8.650;2023-05-03T03:42:28;-8403.72;;;-142.94;nan
63347;BME280;49472;49.880;8.650;2023-05-03T03:44:54;-8403.72;;;-142.94;nan
63347;BME280;49472;49.880;8.650;2023-05-03T03:47:19;-10113.34;;;-142.94;nan
63347;BME280;49472;49.880;8.650;2023-05-03T03:49:44;-11333.97;;;-142.94;nan
63347;BME280;49472;49.880;8.650;2023-05-03T03:52:09;-12798.13;;;-142.94;nan
63347;BME280;49472;49.880;8.650;2023-05-03T03:54:35;-10357.50;;;-142.94;nan
63347;BME280;49472;49.880;8.650;2023-05-03T03:57:00;-9869.19;;;-142.94;nan
63347;BME280;49472;49.880;8.650;2023-05-03T03:59:29;-10113.34;;;-142.94;nan
63347;BME280;49472;49.880;8.650;2023-05-03T04:01:54;-11822.09;;;-142.94;nan
63347;BME280;49472;49.880;8.650;2023-05-03T04:04:19;-9380.75;;;-142.94;nan
63347;BME280;49472;49.880;8.650;2023-05-03T04:06:45;-10113.34;;;-142.94;nan
63347;BME280;49472;49.880;8.650;2023-05-03T04:09:10;-9869.19;;;-142.94;nan
63347;BME280;49472;49.880;8.650;2023-05-03T04:11:36;-9869.19;;;-142.94;nan
63347;BME280;49472;49.880;8.650;2023-05-03T04:14:01;-10357.50;;;-142.94;nan
63347;BME280;49472;49.880;8.650;2023-05-03T04:16:28;-11578.03;;;-142.94;nan
63347;BME280;49472;49.880;8.650;2023-05-03T04:18:53;-10601.66;;;-142.94;nan
63347;BME280;49472;49.880;8.650;2023-05-03T04:21:18;-12066.13;;;-142.94;nan
63347;BME280;49472;49.880;8.650;2023-05-03T04:23:44;-11333.97;;;-142.94;nan
63347;BME280;49472;49.880;8.650;2023-05-03T04:26:09;-11333.97;;;-142.94;nan
63347;BME280;49472;49.880;8.650;2023-05-03T04:28:35;-11089.88;;;-142.94;nan
63347;BME280;49472;49.880;8.650;2023-05-03T04:31:03;-10113.34;;;-142.94;nan
63347;BME280;49472;49.880;8.650;2023-05-03T04:33:28;-10113.34;;;-142.94;nan
63347;BME280;49472;49.880;8.650;2023-05-03T04:35:55;-9869.19;;;-142.94;nan
63347;BME280;49472;49.880;8.650;2023-05-03T04:38:20;-11578.03;;;-142.94;nan
63347;BME280;49472;49.880;8.650;2023-05-03T04:40:46;-10113.34;;;-142.94;nan
63347;BME280;49472;49.880;8.650;2023-05-03T04:43:11;-10357.50;;;-142.94;nan
63347;BME280;49472;49.880;8.650;2023-05-03T04:45:37;-10113.34;;;-142.94;nan
63347;BME280;49472;49.880;8.650;2023-05-03T04:48:03;-10845.78;;;-142.94;nan
63347;BME280;49472;49.880;8.650;2023-05-03T04:50:29;-11089.88;;;-142.94;nan
63347;BME280;49472;49.880;8.650;2023-05-03T04:52:55;-11822.09;;;-142.94;nan
63347;BME280;49472;49.880;8.650;2023-05-03T04:55:20;-13042.06;;;-142.94;nan
63347;BME280;49472;49.880;8.650;2023-05-03T04:57:45;-13286.00;;;-142.94;nan
63347;BME280;49472;49.880;8.650;2023-05-03T05:00:11;-11822.09;;;-142.94;nan
63347;BME280;49472;49.880;8.650;2023-05-03T05:02:37;-10845.78;;;-142.94;nan
63347;BME280;49472;49.880;8.650;2023-05-03T05:05:02;-12798.13;;;-142.94;nan
63347;BME280;49472;49.880;8.650;2023-05-03T05:07:28;-10113.34;;;-142.94;nan
63347;BME280;49472;49.880;8.650;2023-05-03T05:09:53;-9624.97;;;-142.94;nan
63347;BME280;49472;49.880;8.650;2023-05-03T05:12:18;-8892.28;;;-142.94;nan
63347;BME280;49472;49.880;8.650;2023-05-03T05:14:44;-10113.34;;;-142.94;nan
63347;BME280;49472;49.880;8.650;2023-05-03T05:17:09;-10113.34;;;-142.94;nan
63347;BME280;49472;49.880;8.650;2023-05-03T05:19:34;-9380.75;;;-142.94;nan
63347;BME280;49472;49.880;8.650;2023-05-03T05:22:00;-9869.19;;;-142.94;nan
63347;BME280;49472;49.880;8.650;2023-05-03T05:24:26;-11089.88;;;-142.94;nan
63347;BME280;49472;49.880;8.650;2023-05-03T05:26:51;-9869.19;;;-142.94;nan
63347;BME280;49472;49.880;8.650;2023-05-03T05:29:16;-8648.00;;;-142.94;nan
63347;BME280;49472;49.880;8.650;2023-05-03T05:31:41;-9380.75;;;-142.94;nan
63347;BME280;49472;49.880;8.650;2023-05-03T05:34:07;-8892.28;;;-142.94;nan
63347;BME280;49472;49.880;8.650;2023-05-03T05:36:32;-7915.09;;;-142.94;nan
63347;BME280;49472;49.880;8.650;2023-05-03T05:38:57;-8159.41;;;-142.94;nan
63347;BME280;49472;49.880;8.650;2023-05-03T05:41:23;-7670.75;;;-142.94;nan
63347;BME280;49472;49.880;8.650;2023-05-03T05:43:48;-8159.41;;;-142.94;nan
63347;BME280;49472;49.880;8.650;2023-05-03T05:46:14;-9624.97;;;-142.94;nan
63347;BME280;49472;49.880;8.650;2023-05-03T05:48:40;-7426.38;;;-142.94;nan
63347;BME280;49472;49.880;8.650;2023-05-03T05:51:05;-7670.75;;;-142.94;nan
63347;BME280;49472;49.880;8.650;2023-05-03T05:53:31;-7915.09;;;-142.94;nan
63347;BME280;49472;49.880;8.650;2023-05-03T05:55:56;-5959.81;;;-142.94;nan
63347;BME280;49472;49.880;8.650;2023-05-03T05:58:21;-5959.81;;;-142.94;nan
63347;BME280;49472;49.880;8.650;2023-05-03T06:00:46;-6448.75;;;-142.94;nan
63347;BME280;49472;49.880;8.650;2023-05-03T06:03:15;-5470.81;;;-142.94;nan
63347;BME280;49472;49.880;8.650;2023-05-03T06:05:41;-5470.81;;;-142.94;nan
63347;BME280;49472;49.880;8.650;2023-05-03T06:08:06;-6693.19;;;-142.94;nan
63347;BME280;49472;49.880;8.650;2023-05-03T06:10:32;-5226.31;;;-142.94;nan
63347;BME280;49472;49.880;8.650;2023-05-03T06:12:57;-4492.63;;;-142.94;nan
63347;BME280;49472;49.880;8.650;2023-05-03T06:15:23;-4981.75;;;-142.94;nan
63347;BME280;49472;49.880;8.650;2023-05-03T06:17:48;-4003.41;;;-142.94;nan
63347;BME280;49472;49.880;8.650;2023-05-03T06:20:13;-4492.63;;;-142.94;nan
63347;BME280;49472;49.880;8.650;2023-05-03T06:22:39;-1801.00;;;-142.94;nan
63347;BME280;49472;49.880;8.650;2023-05-03T06:25:05;-1311.38;;;-142.94;nan
63347;BME280;49472;49.880;8.650;2023-05-03T06:27:31;-2780.03;;;-142.94;nan
63347;BME280;49472;49.880;8.650;2023-05-03T06:29:57;-576.81;;;-142.94;nan
63347;BME280;49472;49.880;8.650;2023-05-03T06:32:22;-87.03;;;-142.94;nan
63347;BME280;49472;49.880;8.650;2023-05-03T06:34:48;-331.94;;;-142.94;nan
63347;BME280;49472;49.880;8.650;2023-05-03T06:37:13;1382.84;;;-142.94;nan
63347;BME280;49472;49.880;8.650;2023-05-03T06:39:39;1382.84;;;-142.94;nan
63347;BME280;49472;49.880;8.650;2023-05-03T06:42:04;1137.81;;;-142.94;nan
63347;BME280;49472;49.880;8.650;2023-05-03T06:44:30;402.84;;;-142.94;nan
63347;BME280;49472;49.880;8.650;2023-05-03T06:46:55;2853.34;;;-142.94;nan
63347;BME280;49472;49.880;8.650;2023-05-03T06:49:20;2118.00;;;-142.94;nan
63347;BME280;49472;49.880;8.650;2023-05-03T06:51:46;4815.03;;;-142.94;nan
63347;BME280;49472;49.880;8.650;2023-05-03T06:54:11;5060.34;;;-142.94;nan
63347;BME280;49472;49.880;8.650;2023-05-03T06:56:37;5550.97;;;-142.94;nan
63347;BME280;49472;49.880;8.650;2023-05-03T06:59:03;4815.03;;;-142.94;nan
63347;BME280;49472;49.880;8.650;2023-05-03T07:01:29;5060.34;;;-142.94;nan
63347;BME280;49472;49.880;8.650;2023-05-03T07:03:55;5060.34;;;-142.94;nan
63347;BME280;49472;49.880;8.650;2023-05-03T07:06:20;7268.81;;;-142.94;nan
63347;BME280;49472;49.880;8.650;2023-05-03T07:08:51;6287.09;;;-142.94;nan
63347;BME280;49472;49.880;8.650;2023-05-03T07:11:19;8005.28;;;-142.94;nan
63347;BME280;49472;49.880;8.650;2023-05-03T07:13:52;8987.53;;;-142.94;nan
63347;BME280;49472;49.880;8.650;2023-05-03T07:16:19;9970.06;;;-142.94;nan
63347;BME280;49472;49.880;8.650;2023-05-03T07:18:44;9478.75;;;-142.94;nan
63347;BME280;49472;49.880;8.650;2023-05-03T07:21:11;8250.81;;;-142.94;nan
63347;BME280;49472;49.880;8.650;2023-05-03T07:23:36;8741.94;;;-142.94;nan
63347;BME280;49472;49.880;8.650;2023-05-03T07:26:01;8005.28;;;-142.94;nan
63347;BME280;49472;49.880;8.650;2023-05-03T07:28:28;7268.81;;;-142.94;nan
63347;BME280;49472;49.880;8.650;2023-05-03T07:30:53;8005.28;;;-142.94;nan
63347;BME280;49472;49.880;8.650;2023-05-03T07:33:18;8741.94;;;-142.94;nan
63347;BME280;49472;49.880;8.650;2023-05-03T07:35:47;8005.28;;;-142.94;nan
63347;BME280;49472;49.880;8.650;2023-05-03T07:38:13;9478.75;;;-142.94;nan
63347;BME280;49472;49.880;8.650;2023-05-03T07:40:40;10952.91;;;-142.94;nan
63347;BME280;49472;49.880;8.650;2023-05-03T07:43:05;12919.44;;;-142.94;nan
63347;BME280;49472;49.880;8.650;2023-05-03T07:45:31;13411.25;;;-142.94;nan
63347;BME280;49472;49.880;8.650;2023-05-03T07:47:56;11936.00;;;-142.94;nan
63347;BME280;49472;49.880;8.650;2023-05-03T07:50:22;12181.84;;;-142.94;nan
63347;BME280;49472;49.880;8.650;2023-05-03T07:52:48;12181.84;;;-142.94;nan
63347;BME280;49472;49.880;8.650;2023-05-03T07:55:18;12427.69;;;-142.94;nan
63347;BME280;49472;49.880;8.650;2023-05-03T07:57:43;13657.19;;;-142.94;nan
63347;BME280;49472;49.880;8.650;2023-05-03T08:00:09;12673.53;;;-142.94;nan
63347;BME280;49472;49.880;8.650;2023-05-03T08:02:35;13411.25;;;-142.94;nan
63347;BME280;49472;49.880;8.650;2023-05-03T08:05:01;13903.13;;;-142.94;nan
63347;BME280;49472;49.880;8.650;2023-05-03T08:07:27;14395.09;;;-142.94;nan
63347;BME280;49472;49.880;8.650;2023-05-03T08:09:52;14887.13;;;-142.94;nan
63347;BME280;49472;49.880;8.650;2023-05-03T08:12:18;16856.00;;;-142.94;nan
63347;BME280;49472;49.880;8.650;2023-05-03T08:14:43;13903.13;;;-142.94;nan
63347;BME280;49472;49.880;8.650;2023-05-03T08:17:08;13657.19;;;-142.94;nan
63347;BME280;49472;49.880;8.650;2023-05-03T08:19:34;15379.22;;;-142.94;nan
63347;BME280;49472;49.880;8.650;2023-05-03T08:22:00;13657.19;;;-142.94;nan
63347;BME280;49472;49.880;8.650;2023-05-03T08:24:25;12673.53;;;-142.94;nan
63347;BME280;49472;49.880;8.650;2023-05-03T08:26:51;14395.09;;;-142.94;nan
63347;BME280;49472;49.880;8.650;2023-05-03T08:29:16;15871.41;;;-142.94;nan
63347;BME280;49472;49.880;8.650;2023-05-03T08:31:42;16363.66;;;-142.94;nan
63347;BME280;49472;49.880;8.650;2023-05-03T08:34:07;16609.81;;;-142.94;nan
63347;BME280;49472;49.880;8.650;2023-05-03T08:36:35;17348.41;;;-142.94;nan
63347;BME280;49472;49.880;8.650;2023-05-03T08:39:03;17102.19;;;-142.94;nan
63347;BME280;49472;49.880;8.650;2023-05-03T08:41:31;16363.66;;;-142.94;nan
63347;BME280;49472;49.880;8.650;2023-05-03T08:43:58;17840.88;;;-142.94;nan
63347;BME280;49472;49.880;8.650;2023-05-03T08:46:25;18826.03;;;-142.94;nan
63347;BME280;49472;49.880;8.650;2023-05-03T08:48:52;16856.00;;;-142.94;nan
63347;BME280;49472;49.880;8.650;2023-05-03T08:51:18;20057.91;;;-142.94;nan
63347;BME280;49472;49.880;8.650;2023-05-03T08:53:44;19318.72;;;-142.94;nan
63347;BME280;49472;49.880;8.650;2023-05-03T08:56:11;17102.19;;;-142.94;nan
63347;BME280;49472;49.880;8.650;2023-05-03T08:58:40;18579.72;;;-142.94;nan
63347;BME280;49472;49.880;8.650;2023-05-03T09:01:07;17840.88;;;-142.94;nan
63347;BME280;49472;49.880;8.650;2023-05-03T09:03:33;19565.09;;;-142.94;nan
63347;BME280;49472;49.880;8.650;2023-05-03T09:05:58;18333.41;;;-142.94;nan
63347;BME280;49472;49.880;8.650;2023-05-03T09:08:26;20550.78;;;-142.94;nan
63347;BME280;49472;49.880;8.650;2023-05-03T09:10:52;21783.28;;;-142.94;nan
63347;BME280;49472;49.880;8.650;2023-05-03T09:13:17;22523.03;;;-142.94;nan
63347;BME280;49472;49.880;8.650;2023-05-03T09:15:46;25236.75;;;-142.94;nan
63347;BME280;49472;49.880;8.650;2023-05-03T09:18:18;22523.03;;;-142.94;nan
63347;BME280;49472;49.880;8.650;2023-05-03T09:20:45;26964.84;;;-142.94;nan
63347;BME280;49472;49.880;8.650;2023-05-03T09:25:53;25483.56;;;-142.94;nan
63347;BME280;49472;49.880;8.650;2023-05-03T09:28:19;27211.78;;;-142.94;nan
63347;BME280;49472;49.880;8.650;2023-05-03T09:30:45;26717.91;;;-142.94;nan
63347;BME280;49472;49.880;8.650;2023-05-03T09:33:12;29682.19;;;-142.94;nan
63347;BME280;49472;49.880;8.650;2023-05-03T09:36:04;32401.78;;;-142.94;nan
63347;BME280;49472;49.880;8.650;2023-05-03T09:38:32;27458.75;;;-142.94;nan
63347;BME280;49472;49.880;8.650;2023-05-03T09:40:59;31165.34;;;-142.94;nan
63347;BME280;49472;49.880;8.650;2023-05-03T09:43:26;30423.69;;;-142.94;nan
63347;BME280;49472;49.880;8.650;2023-05-03T09:45:51;33638.69;;;-142.94;nan
63347;BME280;49472;49.880;8.650;2023-05-03T09:48:16;32154.44;;;-142.94;nan
63347;BME280;49472;49.880;8.650;2023-05-03T09:50:47;36609.09;;;-142.94;nan
63347;BME280;49472;49.880;8.650;2023-05-03T09:53:14;36361.47;;;-142.94;nan
63347;BME280;49472;49.880;8.650;2023-05-03T09:55:42;34628.53;;;-142.94;nan
63347;BME280;49472;49.880;8.650;2023-05-03T09:58:08;39202.66;;;-142.94;nan
63347;BME280;49472;49.880;8.650;2023-05-03T10:00:38;43406.91;;;-142.94;nan
63347;BME280;49472;49.880;8.650;2023-05-03T10:03:09;43255.69;;;-142.94;nan
63347;BME280;49472;49.880;8.650;2023-05-03T10:05:41;45214.22;;;-142.94;nan
63347;BME280;49472;49.880;8.650;2023-05-03T10:08:08;45198.69;;;-142.94;nan
63347;BME280;49472;49.880;8.650;2023-05-03T10:10:36;45580.81;;;-142.94;nan
63347;BME280;49472;49.880;8.650;2023-05-03T10:13:04;43874.16;;;-142.94;nan
63347;BME280;49472;49.880;8.650;2023-05-03T10:15:30;45109.47;;;-142.94;nan
63347;BME280;49472;49.880;8.650;2023-05-03T10:17:57;44415.16;;;-142.94;nan
63347;BME280;49472;49.880;8.650;2023-05-03T10:20:44;45972.72;;;-142.94;nan
63347;BME280;49472;49.880;8.650;2023-05-03T10:23:14;48185.19;;;-142.94;nan
63347;BME280;49472;49.880;8.650;2023-05-03T10:28:37;49614.34;;;-142.94;nan
63347;BME280;49472;49.880;8.650;2023-05-03T10:31:03;50105.78;;;-142.94;nan
63347;BME280;49472;49.880;8.650;2023-05-03T10:33:30;50575.91;;;-142.94;nan
63347;BME280;49472;49.880;8.650;2023-05-03T10:35:57;50533.16;;;-142.94;nan
63347;BME280;49472;49.880;8.650;2023-05-03T10:38:25;50647.78;;;-142.94;nan
63347;BME280;49472;49.880;8.650;2023-05-03T10:40:51;50717.72;;;-142.94;nan
63347;BME280;49472;49.880;8.650;2023-05-03T10:48:22;51267.59;;;-142.94;nan
63347;BME280;49472;49.880;8.650;2023-05-03T10:50:48;51380.31;;;-142.94;nan
63347;BME280;49472;49.880;8.650;2023-05-03T10:56:06;51294.81;;;-142.94;nan
63347;BME280;49472;49.880;8.650;2023-05-03T10:58:46;51397.78;;;-142.94;nan
63347;BME280;49472;49.880;8.650;2023-05-03T11:01:14;51345.31;;;-142.94;nan
63347;BME280;49472;49.880;8.650;2023-05-03T11:09:00;51327.84;;;-142.94;nan
63347;BME280;49472;49.880;8.650;2023-05-03T11:11:25;51269.53;;;-142.94;nan
63347;BME280;49472;49.880;8.650;2023-05-03T11:13:51;51135.47;;;-142.94;nan
63347;BME280;49472;49.880;8.650;2023-05-03T11:16:17;50941.16;;;-142.94;nan
63347;BME280;49472;49.880;8.650;2023-05-03T11:18:43;50890.63;;;-142.94;nan
63347;BME280;49472;49.880;8.650;2023-05-03T11:21:10;50727.44;;;-142.94;nan
63347;BME280;49472;49.880;8.650;2023-05-03T11:23:37;50700.25;;;-142.94;nan
63347;BME280;49472;49.880;8.650;2023-05-03T11:26:05;50336.94;;;-142.94;nan
63347;BME280;49472;49.880;8.650;2023-05-03T11:28:30;50354.44;;;-142.94;nan
63347;BME280;49472;49.880;8.650;2023-05-03T11:30:56;50197.06;;;-142.94;nan
63347;BME280;49472;49.880;8.650;2023-05-03T11:33:21;50057.22;;;-142.94;nan
63347;BME280;49472;49.880;8.650;2023-05-03T11:35:47;49907.66;;;-142.94;nan
63347;BME280;49472;49.880;8.650;2023-05-03T11:38:12;49795.00;;;-142.94;nan
63347;BME280;49472;49.880;8.650;2023-05-03T11:40:37;49796.94;;;-142.94;nan
63347;BME280;49472;49.880;8.650;2023-05-03T11:43:04;49979.50;;;-142.94;nan
63347;BME280;49472;49.880;8.650;2023-05-03T11:45:38;49746.44;;;-142.94;nan
63347;BME280;49472;49.880;8.650;2023-05-03T11:48:05;49728.94;;;-142.94;nan
63347;BME280;49472;49.880;8.650;2023-05-03T11:50:48;49645.44;;;-142.94;nan
63347;BME280;49472;49.880;8.650;2023-05-03T11:53:16;49717.28;;;-142.94;nan
63347;BME280;49472;49.880;8.650;2023-05-03T11:55:44;49678.44;;;-142.94;nan
63347;BME280;49472;49.880;8.650;2023-05-03T11:58:14;49594.94;;;-142.94;nan
63347;BME280;49472;49.880;8.650;2023-05-03T12:00:47;49600.75;;;-142.94;nan
63347;BME280;49472;49.880;8.650;2023-05-03T12:03:21;49528.91;;;-142.94;nan
63347;BME280;49472;49.880;8.650;2023-05-03T12:05:48;49482.28;;;-142.94;nan
63347;BME280;49472;49.880;8.650;2023-05-03T12:08:13;49414.31;;;-142.94;nan
63347;BME280;49472;49.880;8.650;2023-05-03T12:10:41;49453.16;;;-142.94;nan
63347;BME280;49472;49.880;8.650;2023-05-03T12:13:06;49387.13;;;-142.94;nan
63347;BME280;49472;49.880;8.650;2023-05-03T12:15:33;49457.03;;;-142.94;nan
63347;BME280;49472;49.880;8.650;2023-05-03T12:18:00;49359.94;;;-142.94;nan
63347;BME280;49472;49.880;8.650;2023-05-03T12:20:28;49387.13;;;-142.94;nan
63347;BME280;49472;49.880;8.650;2023-05-03T12:22:59;49348.28;;;-142.94;nan
63347;BME280;49472;49.880;8.650;2023-05-03T12:25:27;49422.09;;;-142.94;nan
63347;BME280;49472;49.880;8.650;2023-05-03T12:27:53;49389.06;;;-142.94;nan
63347;BME280;49472;49.880;8.650;2023-05-03T12:30:19;49410.44;;;-142.94;nan
63347;BME280;49472;49.880;8.650;2023-05-03T12:32:44;49394.91;;;-142.94;nan
63347;BME280;49472;49.880;8.650;2023-05-03T12:35:09;49404.59;;;-142.94;nan
63347;BME280;49472;49.880;8.650;2023-05-03T12:37:38;49391.00;;;-142.94;nan
63347;BME280;49472;49.880;8.650;2023-05-03T12:40:04;49396.84;;;-142.94;nan
63347;BME280;49472;49.880;8.650;2023-05-03T12:42:30;49356.06;;;-142.94;nan
63347;BME280;49472;49.880;8.650;2023-05-03T12:44:56;49387.13;;;-142.94;nan
63347;BME280;49472;49.880;8.650;2023-05-03T12:47:22;49385.19;;;-142.94;nan
63347;BME280;49472;49.880;8.650;2023-05-03T12:49:47;49412.38;;;-142.94;nan
63347;BME280;49472;49.880;8.650;2023-05-03T12:52:12;49416.25;;;-142.94;nan
63347;BME280;49472;49.880;8.650;2023-05-03T12:54:38;49394.91;;;-142.94;nan
63347;BME280;49472;49.880;8.650;2023-05-03T12:57:03;49412.38;;;-142.94;nan
63347;BME280;49472;49.880;8.650;2023-05-03T12:59:29;49451.22;;;-142.94;nan
63347;BME280;49472;49.880;8.650;2023-05-03T13:01:55;49462.88;;;-142.94;nan
63347;BME280;49472;49.880;8.650;2023-05-03T13:04:20;49406.53;;;-142.94;nan
63347;BME280;49472;49.880;8.650;2023-05-03T13:06:46;49476.47;;;-142.94;nan
63347;BME280;49472;49.880;8.650;2023-05-03T13:09:13;49455.09;;;-142.94;nan
63347;BME280;49472;49.880;8.650;2023-05-03T13:11:40;49422.09;;;-142.94;nan
63347;BME280;49472;49.880;8.650;2023-05-03T13:14:06;49464.81;;;-142.94;nan
63347;BME280;49472;49.880;8.650;2023-05-03T13:16:31;49501.72;;;-142.94;nan
63347;BME280;49472;49.880;8.650;2023-05-03T13:18:59;49505.59;;;-142.94;nan
63347;BME280;49472;49.880;8.650;2023-05-03T13:21:24;49492.00;;;-142.94;nan